Time;durP1;ratioP1;P1;durP2;ratioP2;P2;SDS_P1;SDS_P2;PMS_P1;PMS_P2;Temp;Humidity;BMP_temperature;BMP_pressure;BME280_temperature;BME280_humidity;BME280_pressure;Samples;Min_cycle;Max_cycle;Signal;HPM_P1;HPM_P2
2023/08/20 00:01:31;;;;;;;;;;;;;;;;;;4934957;28;89460;-67
2023/08/20 00:03:57;;;;;;;;;;;;;;;;;;4941052;28;89668;-68
2023/08/20 00:06:23;;;;;;;;;;;;;;;;;;4941891;28;89055;-66
2023/08/20 00:08:48;;;;;;;;;;;;;;;;;;4936078;28;91699;-69
2023/08/20 00:11:13;;;;;;;;;;;;;;;;;;4944151;28;89418;-68
2023/08/20 00:13:39;;;;;;;;;;;;;;;;;;4943773;28;89850;-69
2023/08/20 00:16:05;;;;;;;;;;;;;;;;;;4940204;28;90234;-67
2023/08/20 00:18:30;;;;;;;;;;;;;;;;;;4940807;28;89899;-70
2023/08/20 00:20:56;;;;;;;;;;;;;;;;;;4940571;28;91258;-67
2023/08/20 00:23:21;;;;;;;;;;;;;;;;;;4938881;28;90123;-66
2023/08/20 00:25:47;;;;;;;;;;;;;;;;;;4942746;28;89554;-66
2023/08/20 00:28:12;;;;;;;;;;;;;;;;;;4943548;28;90113;-67
2023/08/20 00:30:37;;;;;;;;;;;;;;;;;;4944990;28;89485;-67
2023/08/20 00:33:03;;;;;;;;;;;;;;;;;;4940715;28;89944;-66
2023/08/20 00:35:28;;;;;;;;;;;;;;;;;;4942584;28;89670;-66
2023/08/20 00:37:53;;;;;;;;;;;;;;;;;;4938547;28;89087;-67
2023/08/20 00:40:18;;;;;;;;;;;;;;;;;;4939893;28;90112;-66
2023/08/20 00:42:44;;;;;;;;;;;;;;;;;;4935067;28;89377;-66
2023/08/20 00:45:09;;;;;;;;;;;;;;;;;;4939098;28;89991;-66
2023/08/20 00:47:34;;;;;;;;;;;;;;;;;;4947219;28;90712;-66
2023/08/20 00:49:59;;;;;;;;;;;;;;;;;;4938650;28;89485;-68
2023/08/20 00:52:25;;;;;;;;;;;;;;;;;;4941094;28;91160;-67
2023/08/20 00:54:50;;;;;;;;;;;;;;;;;;4941351;28;90220;-71
2023/08/20 00:57:17;;;;;;;;;;;;;;;;;;4931991;28;89443;-67
2023/08/20 00:59:43;;;;;;;;;;;;;;;;;;4938192;28;90911;-66
2023/08/20 01:02:08;;;;;;;;;;;;;;;;;;4928907;28;89265;-67
2023/08/20 01:04:34;;;;;;;;;;;;;;;;;;4946207;28;90003;-66
2023/08/20 01:07:08;;;;;;;;;;;;;;;;;;4950721;28;89553;-67
2023/08/20 01:09:33;;;;;;;;;;;;;;;;;;4950184;28;89171;-65
2023/08/20 01:11:59;;;;;;;;;;;;;;;;;;4950828;28;89144;-66
2023/08/20 01:14:24;;;;;;;;;;;;;;;;;;4953495;28;89290;-71
2023/08/20 01:16:50;;;;;;;;;;;;;;;;;;4950238;28;89068;-67
2023/08/20 01:19:17;;;;;;;;;;;;;;;;;;4950430;28;90341;-70
2023/08/20 01:22:00;;;;;;;;;;;;;;;;;;4950353;28;89186;-68
2023/08/20 01:24:25;;;;;;;;;;;;;;;;;;4950700;28;89695;-69
2023/08/20 01:27:09;;;;;;;;;;;;;;;;;;4937393;28;89302;-66
2023/08/20 01:29:35;;;;;;;;;;;;;;;;;;4929823;28;91218;-68
2023/08/20 01:32:01;;;;;;;;;;;;;;;;;;4931842;28;89657;-66
2023/08/20 01:34:26;;;;;;;;;;;;;;;;;;4935147;28;89452;-67
2023/08/20 01:36:51;;;;;;;;;;;;;;;;;;4939773;28;89117;-70
2023/08/20 01:39:18;;;;;;;;;;;;;;;;;;4935896;28;89692;-73
2023/08/20 01:41:44;;;;;;;;;;;;;;;;;;4949824;28;90546;-70
2023/08/20 01:44:09;;;;;;;;;;;;;;;;;;4949305;28;89450;-68
2023/08/20 01:46:34;;;;;;;;;;;;;;;;;;4950195;28;89548;-69
2023/08/20 01:48:59;;;;;;;;;;;;;;;;;;4949657;28;90147;-70
2023/08/20 01:51:24;;;;;;;;;;;;;;;;;;4949903;28;89715;-66
2023/08/20 01:53:50;;;;;;;;;;;;;;;;;;4950445;28;89597;-69
2023/08/20 01:56:15;;;;;;;;;;;;;;;;;;4950055;28;89106;-68
2023/08/20 01:58:41;;;;;;;;;;;;;;;;;;4953280;28;89635;-71
2023/08/20 02:01:06;;;;;;;;;;;;;;;;;;4950210;28;89952;-67
2023/08/20 02:03:31;;;;;;;;;;;;;;;;;;4949765;28;89157;-68
2023/08/20 02:05:56;;;;;;;;;;;;;;;;;;4948720;28;92292;-70
2023/08/20 02:08:22;;;;;;;;;;;;;;;;;;4950447;28;89427;-70
2023/08/20 02:10:47;;;;;;;;;;;;;;;;;;4949731;28;89041;-70
2023/08/20 02:13:12;;;;;;;;;;;;;;;;;;4949973;28;89268;-70
2023/08/20 02:15:37;;;;;;;;;;;;;;;;;;4948125;28;92267;-71
2023/08/20 02:18:03;;;;;;;;;;;;;;;;;;4949919;28;89183;-66
2023/08/20 02:20:28;;;;;;;;;;;;;;;;;;4950863;28;90637;-67
2023/08/20 02:22:53;;;;;;;;;;;;;;;;;;4930245;28;89725;-66
2023/08/20 02:25:19;;;;;;;;;;;;;;;;;;4930037;28;90113;-68
2023/08/20 02:27:44;;;;;;;;;;;;;;;;;;4929777;28;89466;-68
2023/08/20 02:30:10;;;;;;;;;;;;;;;;;;4930179;28;89144;-66
2023/08/20 02:32:35;;;;;;;;;;;;;;;;;;4930780;28;90045;-66
2023/08/20 02:35:00;;;;;;;;;;;;;;;;;;4940667;28;89390;-68
2023/08/20 02:37:25;;;;;;;;;;;;;;;;;;4948334;28;89423;-71
2023/08/20 02:39:51;;;;;;;;;;;;;;;;;;4949129;28;89842;-66
2023/08/20 02:42:16;;;;;;;;;;;;;;;;;;4952176;28;89855;-68
2023/08/20 02:44:41;;;;;;;;;;;;;;;;;;4949582;28;91161;-66
2023/08/20 02:47:06;;;;;;;;;;;;;;;;;;4949491;28;89121;-67
2023/08/20 02:49:31;;;;;;;;;;;;;;;;;;4949407;28;89372;-66
2023/08/20 02:51:57;;;;;;;;;;;;;;;;;;4949367;28;89739;-71
2023/08/20 02:54:22;;;;;;;;;;;;;;;;;;4948487;28;89136;-68
2023/08/20 02:56:48;;;;;;;;;;;;;;;;;;4948529;28;89166;-68
2023/08/20 02:59:13;;;;;;;;;;;;;;;;;;4948782;28;89543;-65
2023/08/20 03:01:38;;;;;;;;;;;;;;;;;;4951742;28;90618;-66
2023/08/20 03:04:04;;;;;;;;;;;;;;;;;;4946889;28;89838;-66
2023/08/20 03:06:29;;;;;;;;;;;;;;;;;;4945416;28;90781;-66
2023/08/20 03:08:54;;;;;;;;;;;;;;;;;;4948661;28;89067;-68
2023/08/20 03:11:19;;;;;;;;;;;;;;;;;;4949040;28;89752;-69
2023/08/20 03:13:45;;;;;;;;;;;;;;;;;;4948460;28;89964;-67
2023/08/20 03:16:10;;;;;;;;;;;;;;;;;;4949407;28;89522;-71
2023/08/20 03:18:35;;;;;;;;;;;;;;;;;;4949617;28;90429;-67
2023/08/20 03:21:01;;;;;;;;;;;;;;;;;;4949423;28;89816;-72
2023/08/20 03:23:26;;;;;;;;;;;;;;;;;;4952398;28;89467;-68
2023/08/20 03:25:52;;;;;;;;;;;;;;;;;;4948475;28;90053;-68
2023/08/20 03:28:21;;;;;;;;;;;;;;;;;;4948634;28;90203;-71
2023/08/20 03:30:47;;;;;;;;;;;;;;;;;;4948794;28;89566;-69
2023/08/20 03:33:12;;;;;;;;;;;;;;;;;;4948568;28;89286;-68
2023/08/20 03:35:38;;;;;;;;;;;;;;;;;;4948849;28;89075;-67
2023/08/20 03:38:03;;;;;;;;;;;;;;;;;;4947732;28;89634;-66
2023/08/20 03:40:28;;;;;;;;;;;;;;;;;;4947802;28;89549;-67
2023/08/20 03:42:54;;;;;;;;;;;;;;;;;;4948524;28;89234;-69
2023/08/20 03:45:19;;;;;;;;;;;;;;;;;;4950660;28;89574;-67
2023/08/20 03:47:46;;;;;;;;;;;;;;;;;;4948184;28;89785;-69
2023/08/20 03:50:12;;;;;;;;;;;;;;;;;;4948080;28;89509;-67
2023/08/20 03:52:37;;;;;;;;;;;;;;;;;;4947477;28;89830;-70
2023/08/20 03:55:02;;;;;;;;;;;;;;;;;;4948145;28;89451;-70
2023/08/20 03:57:28;;;;;;;;;;;;;;;;;;4940889;28;90925;-67
2023/08/20 03:59:53;;;;;;;;;;;;;;;;;;4943044;28;90143;-66
2023/08/20 04:02:18;;;;;;;;;;;;;;;;;;4948227;28;89386;-66
2023/08/20 04:04:43;;;;;;;;;;;;;;;;;;4948525;28;90324;-68
2023/08/20 04:07:09;;;;;;;;;;;;;;;;;;4951021;28;90722;-66
2023/08/20 04:09:36;;;;;;;;;;;;;;;;;;4948175;28;90549;-67
2023/08/20 04:12:01;;;;;;;;;;;;;;;;;;4947729;28;89397;-73
2023/08/20 04:14:26;;;;;;;;;;;;;;;;;;4931995;28;89787;-67
2023/08/20 04:16:52;;;;;;;;;;;;;;;;;;4932637;28;89778;-67
2023/08/20 04:19:17;;;;;;;;;;;;;;;;;;4936021;28;89364;-68
2023/08/20 04:21:42;;;;;;;;;;;;;;;;;;4940234;28;89451;-65
2023/08/20 04:24:07;;;;;;;;;;;;;;;;;;4944210;28;89829;-67
2023/08/20 04:26:32;;;;;;;;;;;;;;;;;;4941712;28;90157;-68
2023/08/20 04:28:58;;;;;;;;;;;;;;;;;;4938204;28;89146;-67
2023/08/20 04:31:23;;;;;;;;;;;;;;;;;;4937207;28;89970;-67
2023/08/20 04:33:48;;;;;;;;;;;;;;;;;;4937802;28;89527;-68
2023/08/20 04:36:13;;;;;;;;;;;;;;;;;;4943849;28;89306;-67
2023/08/20 04:38:38;;;;;;;;;;;;;;;;;;4944774;28;90345;-67
2023/08/20 04:41:04;;;;;;;;;;;;;;;;;;4940792;28;89500;-69
2023/08/20 04:43:29;;;;;;;;;;;;;;;;;;4939403;28;92167;-67
2023/08/20 04:45:54;;;;;;;;;;;;;;;;;;4936087;28;89780;-68
2023/08/20 04:48:19;;;;;;;;;;;;;;;;;;4946826;28;89868;-69
2023/08/20 04:50:44;;;;;;;;;;;;;;;;;;4939904;28;89906;-67
2023/08/20 04:53:10;;;;;;;;;;;;;;;;;;4941711;28;89616;-68
2023/08/20 04:55:35;;;;;;;;;;;;;;;;;;4940280;28;89577;-66
2023/08/20 04:58:00;;;;;;;;;;;;;;;;;;4933131;28;89660;-67
2023/08/20 05:00:26;;;;;;;;;;;;;;;;;;4944502;28;89844;-69
2023/08/20 05:02:52;;;;;;;;;;;;;;;;;;4939867;28;89712;-67
2023/08/20 05:05:17;;;;;;;;;;;;;;;;;;4942281;28;89208;-67
2023/08/20 05:07:43;;;;;;;;;;;;;;;;;;4937462;28;89413;-75
2023/08/20 05:10:09;;;;;;;;;;;;;;;;;;4948945;28;89430;-69
2023/08/20 05:12:34;;;;;;;;;;;;;;;;;;4940844;28;89021;-67
2023/08/20 05:14:59;;;;;;;;;;;;;;;;;;4940538;28;89362;-69
2023/08/20 05:17:25;;;;;;;;;;;;;;;;;;4939598;28;89169;-65
2023/08/20 05:19:50;;;;;;;;;;;;;;;;;;4939772;28;89418;-69
2023/08/20 05:22:15;;;;;;;;;;;;;;;;;;4938544;28;89874;-66
2023/08/20 05:24:40;;;;;;;;;;;;;;;;;;4945528;28;89845;-66
2023/08/20 05:27:06;;;;;;;;;;;;;;;;;;4941868;28;89419;-66
2023/08/20 05:29:31;;;;;;;;;;;;;;;;;;4949372;28;90717;-65
2023/08/20 05:31:56;;;;;;;;;;;;;;;;;;4943399;28;89676;-64
2023/08/20 05:34:21;;;;;;;;;;;;;;;;;;4940795;28;90183;-65
2023/08/20 05:36:47;;;;;;;;;;;;;;;;;;4943522;28;89485;-65
2023/08/20 05:39:12;;;;;;;;;;;;;;;;;;4938092;28;89038;-67
2023/08/20 05:41:37;;;;;;;;;;;;;;;;;;4940329;28;89503;-70
2023/08/20 05:44:02;;;;;;;;;;;;;;;;;;4937952;28;90199;-69
2023/08/20 05:46:28;;;;;;;;;;;;;;;;;;4937844;28;89899;-66
2023/08/20 05:48:53;;;;;;;;;;;;;;;;;;4940174;28;90082;-65
2023/08/20 05:51:18;;;;;;;;;;;;;;;;;;4937724;28;90095;-64
2023/08/20 05:53:43;;;;;;;;;;;;;;;;;;4942455;28;89888;-65
2023/08/20 05:56:09;;;;;;;;;;;;;;;;;;4937169;28;90377;-70
2023/08/20 05:58:34;;;;;;;;;;;;;;;;;;4939119;28;90833;-65
2023/08/20 06:00:59;;;;;;;;;;;;;;;;;;4936070;28;90855;-65
2023/08/20 06:03:24;;;;;;;;;;;;;;;;;;4935745;28;90617;-64
2023/08/20 06:05:50;;;;;;;;;;;;;;;;;;4937623;28;89159;-67
2023/08/20 06:08:15;;;;;;;;;;;;;;;;;;4938871;28;89480;-65
2023/08/20 06:10:40;;;;;;;;;;;;;;;;;;4942685;28;89163;-73
2023/08/20 06:13:06;;;;;;;;;;;;;;;;;;4937364;28;89795;-69
2023/08/20 06:15:31;;;;;;;;;;;;;;;;;;4939136;28;90318;-69
2023/08/20 06:17:56;;;;;;;;;;;;;;;;;;4950466;28;91244;-68
2023/08/20 06:20:22;;;;;;;;;;;;;;;;;;4934621;28;89591;-69
2023/08/20 06:22:47;;;;;;;;;;;;;;;;;;4935630;28;89256;-68
2023/08/20 06:25:12;;;;;;;;;;;;;;;;;;4933679;28;89897;-68
2023/08/20 06:27:38;;;;;;;;;;;;;;;;;;4937418;28;90091;-69
2023/08/20 06:30:03;;;;;;;;;;;;;;;;;;4936807;28;89265;-69
2023/08/20 06:32:28;;;;;;;;;;;;;;;;;;4938163;28;89842;-69
2023/08/20 06:34:54;;;;;;;;;;;;;;;;;;4936675;28;90561;-70
2023/08/20 06:37:19;;;;;;;;;;;;;;;;;;4940976;28;89242;-66
2023/08/20 06:39:44;;;;;;;;;;;;;;;;;;4940301;28;89431;-66
2023/08/20 06:42:09;;;;;;;;;;;;;;;;;;4939618;28;89593;-66
2023/08/20 06:44:35;;;;;;;;;;;;;;;;;;4937626;28;90080;-67
2023/08/20 06:47:01;;;;;;;;;;;;;;;;;;4938461;28;91053;-67
2023/08/20 06:49:26;;;;;;;;;;;;;;;;;;4935496;28;89749;-66
2023/08/20 06:51:51;;;;;;;;;;;;;;;;;;4934753;28;89592;-67
2023/08/20 06:54:17;;;;;;;;;;;;;;;;;;4936282;28;90139;-68
2023/08/20 06:56:42;;;;;;;;;;;;;;;;;;4937012;28;90289;-70
2023/08/20 06:59:07;;;;;;;;;;;;;;;;;;4936199;28;89535;-70
2023/08/20 07:01:32;;;;;;;;;;;;;;;;;;4936705;28;89454;-67
2023/08/20 07:03:58;;;;;;;;;;;;;;;;;;4932554;28;89105;-73
2023/08/20 07:06:23;;;;;;;;;;;;;;;;;;4937270;28;89609;-66
2023/08/20 07:08:49;;;;;;;;;;;;;;;;;;4935559;28;90367;-69
2023/08/20 07:11:14;;;;;;;;;;;;;;;;;;4939364;28;89581;-67
2023/08/20 07:13:39;;;;;;;;;;;;;;;;;;4955063;28;89757;-68
2023/08/20 07:16:04;;;;;;;;;;;;;;;;;;4954467;28;90387;-66
2023/08/20 07:18:29;;;;;;;;;;;;;;;;;;4955682;28;89222;-68
2023/08/20 07:20:55;;;;;;;;;;;;;;;;;;4958586;28;89639;-74
2023/08/20 07:23:21;;;;;;;;;;;;;;;;;;4953594;28;89770;-67
2023/08/20 07:25:46;;;;;;;;;;;;;;;;;;4952262;28;89691;-67
2023/08/20 07:28:12;;;;;;;;;;;;;;;;;;4958226;28;89291;-66
2023/08/20 07:30:37;;;;;;;;;;;;;;;;;;4958546;28;90759;-70
2023/08/20 07:33:03;;;;;;;;;;;;;;;;;;4956687;28;89482;-66
2023/08/20 07:35:28;;;;;;;;;;;;;;;;;;4953656;28;90482;-65
2023/08/20 07:37:53;;;;;;;;;;;;;;;;;;4951501;28;89415;-66
2023/08/20 07:40:19;;;;;;;;;;;;;;;;;;4956477;28;89632;-65
2023/08/20 07:42:44;;;;;;;;;;;;;;;;;;4955469;28;89130;-65
2023/08/20 07:45:10;;;;;;;;;;;;;;;;;;4954899;28;89516;-66
2023/08/20 07:47:35;;;;;;;;;;;;;;;;;;4959147;28;90210;-68
2023/08/20 07:50:01;;;;;;;;;;;;;;;;;;4957741;28;89601;-71
2023/08/20 07:52:26;;;;;;;;;;;;;;;;;;4953569;28;90565;-65
2023/08/20 07:54:51;;;;;;;;;;;;;;;;;;4958083;28;89699;-68
2023/08/20 07:57:16;;;;;;;;;;;;;;;;;;4951680;28;89941;-62
2023/08/20 07:59:41;;;;;;;;;;;;;;;;;;4955167;28;89501;-61
2023/08/20 08:02:07;;;;;;;;;;;;;;;;;;4959224;28;89841;-63
2023/08/20 08:04:33;;;;;;;;;;;;;;;;;;4967357;28;92100;-64
2023/08/20 08:06:58;;;;;;;;;;;;;;;;;;4956495;28;90233;-62
2023/08/20 08:09:27;;;;;;;;;;;;;;;;;;4951681;28;90490;-62
2023/08/20 08:11:52;;;;;;;;;;;;;;;;;;4956108;28;89690;-62
2023/08/20 08:14:18;;;;;;;;;;;;;;;;;;4959505;28;89607;-61
2023/08/20 08:16:44;;;;;;;;;;;;;;;;;;4952937;28;89072;-64
2023/08/20 08:19:10;;;;;;;;;;;;;;;;;;4951845;28;89590;-63
2023/08/20 08:21:35;;;;;;;;;;;;;;;;;;4958243;28;90209;-62
2023/08/20 08:24:00;;;;;;;;;;;;;;;;;;4960475;28;89147;-62
2023/08/20 08:26:25;;;;;;;;;;;;;;;;;;4953763;28;89583;-63
2023/08/20 08:28:51;;;;;;;;;;;;;;;;;;4959293;28;89561;-63
2023/08/20 08:31:16;;;;;;;;;;;;;;;;;;4955880;28;89823;-65
2023/08/20 08:33:41;;;;;;;;;;;;;;;;;;4955158;28;89867;-63
2023/08/20 08:36:06;;;;;;;;;;;;;;;;;;4957137;28;89077;-63
2023/08/20 08:38:31;;;;;;;;;;;;;;;;;;4953767;28;89422;-62
2023/08/20 08:40:56;;;;;;;;;;;;;;;;;;4958597;28;89190;-62
2023/08/20 08:43:22;;;;;;;;;;;;;;;;;;4956366;28;90423;-63
2023/08/20 08:45:48;;;;;;;;;;;;;;;;;;4959326;28;89607;-62
2023/08/20 08:48:13;;;;;;;;;;;;;;;;;;4954406;28;89769;-63
2023/08/20 08:50:39;;;;;;;;;;;;;;;;;;4957336;28;89282;-63
2023/08/20 08:53:05;;;;;;;;;;;;;;;;;;4954635;28;89523;-63
2023/08/20 08:55:30;;;;;;;;;;;;;;;;;;4952409;28;89380;-62
2023/08/20 08:57:55;;;;;;;;;;;;;;;;;;4954618;28;90871;-66
2023/08/20 09:00:20;;;;;;;;;;;;;;;;;;4955757;28;90041;-65
2023/08/20 09:02:46;;;;;;;;;;;;;;;;;;4959143;28;89346;-64
2023/08/20 09:05:13;;;;;;;;;;;;;;;;;;4958281;28;89770;-63
2023/08/20 09:07:41;;;;;;;;;;;;;;;;;;4957590;28;90280;-64
2023/08/20 09:10:07;;;;;;;;;;;;;;;;;;4953034;28;90844;-62
2023/08/20 09:12:34;;;;;;;;;;;;;;;;;;4955835;28;89575;-67
2023/08/20 09:15:00;;;;;;;;;;;;;;;;;;4959709;28;89170;-63
2023/08/20 09:17:27;;;;;;;;;;;;;;;;;;4962164;28;90929;-63
2023/08/20 09:19:53;;;;;;;;;;;;;;;;;;4959251;28;90341;-63
2023/08/20 09:22:19;;;;;;;;;;;;;;;;;;4956375;28;89666;-63
2023/08/20 09:24:45;;;;;;;;;;;;;;;;;;4958165;28;89844;-62
2023/08/20 09:27:13;;;;;;;;;;;;;;;;;;4965395;28;90315;-67
2023/08/20 09:29:45;;;;;;;;;;;;;;;;;;4951553;28;89898;-61
2023/08/20 09:32:28;;;;;;;;;;;;;;;;;;4956471;28;89596;-62
2023/08/20 09:34:54;;;;;;;;;;;;;;;;;;4957955;28;89113;-63
2023/08/20 09:37:21;;;;;;;;;;;;;;;;;;4961013;28;91059;-63
2023/08/20 09:39:46;;;;;;;;;;;;;;;;;;4952161;28;90183;-67
2023/08/20 09:42:12;;;;;;;;;;;;;;;;;;4957989;28;89073;-62
2023/08/20 09:44:39;;;;;;;;;;;;;;;;;;4957297;28;92030;-63
2023/08/20 09:47:12;;;;;;;;;;;;;;;;;;4956335;28;90983;-63
2023/08/20 09:49:37;;;;;;;;;;;;;;;;;;4960257;28;89919;-62
2023/08/20 09:52:04;;;;;;;;;;;;;;;;;;4954127;28;90348;-64
2023/08/20 09:54:39;;;;;;;;;;;;;;;;;;4952743;28;89360;-65
2023/08/20 09:57:07;;;;;;;;;;;;;;;;;;4957945;28;89736;-62
2023/08/20 09:59:32;;;;;;;;;;;;;;;;;;4953980;28;89207;-63
2023/08/20 10:01:58;;;;;;;;;;;;;;;;;;4955197;28;89712;-63
2023/08/20 10:04:24;;;;;;;;;;;;;;;;;;4958019;28;90733;-62
2023/08/20 10:06:50;;;;;;;;;;;;;;;;;;4957061;28;89762;-63
2023/08/20 10:09:16;;;;;;;;;;;;;;;;;;4952750;28;89274;-64
2023/08/20 10:11:41;;;;;;;;;;;;;;;;;;4955334;28;90377;-70
2023/08/20 10:14:07;;;;;;;;;;;;;;;;;;4958448;28;89301;-63
2023/08/20 10:16:33;;;;;;;;;;;;;;;;;;4955199;28;89902;-68
2023/08/20 10:19:01;;;;;;;;;;;;;;;;;;4958303;28;90069;-63
2023/08/20 10:21:26;;;;;;;;;;;;;;;;;;4953542;28;89130;-62
2023/08/20 10:23:52;;;;;;;;;;;;;;;;;;4954147;28;89742;-68
2023/08/20 10:26:21;;;;;;;;;;;;;;;;;;4959036;28;90187;-63
2023/08/20 10:28:46;;;;;;;;;;;;;;;;;;4955666;28;89332;-63
2023/08/20 10:31:12;;;;;;;;;;;;;;;;;;4951559;28;89666;-64
2023/08/20 10:33:58;;;;;;;;;;;;;;;;;;4957157;28;90137;-70
2023/08/20 10:36:30;;;;;;;;;;;;;;;;;;4957813;28;89012;-69
2023/08/20 10:38:56;;;;;;;;;;;;;;;;;;4952886;28;90960;-70
2023/08/20 10:41:28;;;;;;;;;;;;;;;;;;4958323;28;89857;-68
2023/08/20 10:43:57;;;;;;;;;;;;;;;;;;4954307;28;89256;-66
2023/08/20 10:46:23;;;;;;;;;;;;;;;;;;4955333;28;89157;-64
2023/08/20 10:48:50;;;;;;;;;;;;;;;;;;4959913;28;90382;-63
2023/08/20 10:51:23;;;;;;;;;;;;;;;;;;4955205;28;89758;-64
2023/08/20 10:54:05;;;;;;;;;;;;;;;;;;4956631;28;89692;-65
2023/08/20 10:56:43;;;;;;;;;;;;;;;;;;4958490;28;89421;-65
2023/08/20 10:59:21;;;;;;;;;;;;;;;;;;4957234;28;90537;-63
2023/08/20 11:01:47;;;;;;;;;;;;;;;;;;4956921;28;89549;-64
2023/08/20 11:04:16;;;;;;;;;;;;;;;;;;4950280;28;89593;-66
2023/08/20 11:06:41;;;;;;;;;;;;;;;;;;4957251;28;90324;-67
2023/08/20 11:09:07;;;;;;;;;;;;;;;;;;4951837;28;89127;-66
2023/08/20 11:11:32;;;;;;;;;;;;;;;;;;4953526;28;89689;-67
2023/08/20 11:14:04;;;;;;;;;;;;;;;;;;4955024;28;89207;-68
2023/08/20 11:16:29;;;;;;;;;;;;;;;;;;4957702;28;89606;-66
2023/08/20 11:18:54;;;;;;;;;;;;;;;;;;4954781;28;89722;-70
2023/08/20 11:21:19;;;;;;;;;;;;;;;;;;4958004;28;89757;-70
2023/08/20 11:23:46;;;;;;;;;;;;;;;;;;4970854;28;90948;-64
2023/08/20 11:26:11;;;;;;;;;;;;;;;;;;4955568;28;92192;-64
2023/08/20 11:28:36;;;;;;;;;;;;;;;;;;4959746;28;90020;-64
2023/08/20 11:31:02;;;;;;;;;;;;;;;;;;4954361;28;90295;-64
2023/08/20 11:33:29;;;;;;;;;;;;;;;;;;4950502;28;90132;-67
2023/08/20 11:35:54;;;;;;;;;;;;;;;;;;4956799;28;89720;-66
2023/08/20 11:38:20;;;;;;;;;;;;;;;;;;4955298;28;90864;-65
2023/08/20 11:40:45;;;;;;;;;;;;;;;;;;4960210;28;89041;-67
2023/08/20 11:43:11;;;;;;;;;;;;;;;;;;4959501;28;89469;-66
2023/08/20 11:45:49;;;;;;;;;;;;;;;;;;4958042;28;90303;-65
2023/08/20 11:48:15;;;;;;;;;;;;;;;;;;4955600;28;90525;-67
2023/08/20 11:50:41;;;;;;;;;;;;;;;;;;4952756;28;89596;-66
2023/08/20 11:53:06;;;;;;;;;;;;;;;;;;4952327;28;90237;-66
2023/08/20 11:55:31;;;;;;;;;;;;;;;;;;4960456;28;90345;-69
2023/08/20 11:57:57;;;;;;;;;;;;;;;;;;4951169;28;89387;-66
2023/08/20 12:00:29;;;;;;;;;;;;;;;;;;4954987;28;89727;-69
2023/08/20 12:02:55;;;;;;;;;;;;;;;;;;4956052;28;90260;-66
2023/08/20 12:05:20;;;;;;;;;;;;;;;;;;4951834;28;89737;-66
2023/08/20 12:07:56;;;;;;;;;;;;;;;;;;4953758;28;89846;-66
2023/08/20 12:10:22;;;;;;;;;;;;;;;;;;4954454;28;90706;-69
2023/08/20 12:12:48;;;;;;;;;;;;;;;;;;4956805;28;89625;-67
2023/08/20 12:15:13;;;;;;;;;;;;;;;;;;4952855;28;90633;-66
2023/08/20 12:17:39;;;;;;;;;;;;;;;;;;4953995;28;89563;-69
2023/08/20 12:20:12;;;;;;;;;;;;;;;;;;4954119;28;89634;-67
2023/08/20 12:22:38;;;;;;;;;;;;;;;;;;4954935;28;89180;-65
2023/08/20 12:25:03;;;;;;;;;;;;;;;;;;4951693;28;90422;-66
2023/08/20 12:27:29;;;;;;;;;;;;;;;;;;4955675;28;89404;-66
2023/08/20 12:29:54;;;;;;;;;;;;;;;;;;4954455;28;89697;-66
2023/08/20 12:32:19;;;;;;;;;;;;;;;;;;4954837;28;89430;-66
2023/08/20 12:34:44;;;;;;;;;;;;;;;;;;4953425;28;89465;-67
2023/08/20 12:37:09;;;;;;;;;;;;;;;;;;4953254;28;89855;-65
2023/08/20 12:39:35;;;;;;;;;;;;;;;;;;4955663;28;89738;-66
2023/08/20 12:42:00;;;;;;;;;;;;;;;;;;4950739;28;89554;-68
2023/08/20 12:44:26;;;;;;;;;;;;;;;;;;4961871;28;90560;-66
2023/08/20 12:46:51;;;;;;;;;;;;;;;;;;4955902;28;89333;-65
2023/08/20 12:49:16;;;;;;;;;;;;;;;;;;4957286;28;89824;-62
2023/08/20 12:51:42;;;;;;;;;;;;;;;;;;4952141;28;90367;-64
2023/08/20 12:54:07;;;;;;;;;;;;;;;;;;4953244;28;90076;-64
2023/08/20 12:56:34;;;;;;;;;;;;;;;;;;4951956;28;89926;-65
2023/08/20 12:58:59;;;;;;;;;;;;;;;;;;4953942;28;89592;-64
2023/08/20 13:01:24;;;;;;;;;;;;;;;;;;4959751;28;89427;-64
2023/08/20 13:03:49;;;;;;;;;;;;;;;;;;4959210;28;89486;-64
2023/08/20 13:06:15;;;;;;;;;;;;;;;;;;4959189;28;89944;-64
2023/08/20 13:08:41;;;;;;;;;;;;;;;;;;4959091;28;90884;-66
2023/08/20 13:11:07;;;;;;;;;;;;;;;;;;4958260;28;89505;-65
2023/08/20 13:13:35;;;;;;;;;;;;;;;;;;4958778;28;89080;-65
2023/08/20 13:16:01;;;;;;;;;;;;;;;;;;4963696;28;90419;-65
2023/08/20 13:18:26;;;;;;;;;;;;;;;;;;4957327;28;90255;-66
2023/08/20 13:20:54;;;;;;;;;;;;;;;;;;4959523;28;90777;-65
2023/08/20 13:23:20;;;;;;;;;;;;;;;;;;4964537;28;89660;-64
2023/08/20 13:25:45;;;;;;;;;;;;;;;;;;4960843;28;90019;-66
2023/08/20 13:28:10;;;;;;;;;;;;;;;;;;4953056;28;89660;-63
2023/08/20 13:30:35;;;;;;;;;;;;;;;;;;4975765;28;92181;-63
2023/08/20 13:33:01;;;;;;;;;;;;;;;;;;4956647;28;89767;-64
2023/08/20 13:35:26;;;;;;;;;;;;;;;;;;4958601;28;89881;-65
2023/08/20 13:37:52;;;;;;;;;;;;;;;;;;4956291;28;89592;-64
2023/08/20 13:40:18;;;;;;;;;;;;;;;;;;4958602;28;89548;-64
2023/08/20 13:42:43;;;;;;;;;;;;;;;;;;4957681;28;90827;-67
2023/08/20 13:45:08;;;;;;;;;;;;;;;;;;4960151;28;90539;-64
2023/08/20 13:47:34;;;;;;;;;;;;;;;;;;4959232;28;89382;-64
2023/08/20 13:49:59;;;;;;;;;;;;;;;;;;4960387;28;90191;-65
2023/08/20 13:52:24;;;;;;;;;;;;;;;;;;4961123;28;89081;-64
2023/08/20 13:54:49;;;;;;;;;;;;;;;;;;4960373;28;89700;-68
2023/08/20 13:57:14;;;;;;;;;;;;;;;;;;4961687;28;90615;-65
2023/08/20 13:59:40;;;;;;;;;;;;;;;;;;4956137;28;90066;-64
2023/08/20 14:02:05;;;;;;;;;;;;;;;;;;4955826;28;89629;-64
2023/08/20 14:04:30;;;;;;;;;;;;;;;;;;4961523;28;89157;-64
2023/08/20 14:06:55;;;;;;;;;;;;;;;;;;4957557;28;89420;-65
2023/08/20 14:09:21;;;;;;;;;;;;;;;;;;4959579;28;89530;-64
2023/08/20 14:11:46;;;;;;;;;;;;;;;;;;4965117;28;89607;-65
2023/08/20 14:14:11;;;;;;;;;;;;;;;;;;4960010;28;89898;-64
2023/08/20 14:16:37;;;;;;;;;;;;;;;;;;4957883;28;89639;-67
2023/08/20 14:19:02;;;;;;;;;;;;;;;;;;4958440;28;89615;-64
2023/08/20 14:21:28;;;;;;;;;;;;;;;;;;4959969;28;89790;-64
2023/08/20 14:23:53;;;;;;;;;;;;;;;;;;4957129;28;89929;-65
2023/08/20 14:26:18;;;;;;;;;;;;;;;;;;4954773;28;89851;-65
2023/08/20 14:28:44;;;;;;;;;;;;;;;;;;4955872;28;89486;-65
2023/08/20 14:31:09;;;;;;;;;;;;;;;;;;4962719;28;89710;-65
2023/08/20 14:33:34;;;;;;;;;;;;;;;;;;4957197;28;90544;-65
2023/08/20 14:35:59;;;;;;;;;;;;;;;;;;4957223;28;89793;-65
2023/08/20 14:38:25;;;;;;;;;;;;;;;;;;4956164;28;89072;-65
2023/08/20 14:40:50;;;;;;;;;;;;;;;;;;4962066;28;89540;-65
2023/08/20 14:43:16;;;;;;;;;;;;;;;;;;4954339;28;89379;-67
2023/08/20 14:45:41;;;;;;;;;;;;;;;;;;4960867;28;89606;-64
2023/08/20 14:48:06;;;;;;;;;;;;;;;;;;4959252;28;89592;-65
2023/08/20 14:50:32;;;;;;;;;;;;;;;;;;4955244;28;90679;-64
2023/08/20 14:52:57;;;;;;;;;;;;;;;;;;4960556;28;90902;-64
2023/08/20 14:55:22;;;;;;;;;;;;;;;;;;4956218;28;90147;-65
2023/08/20 14:57:48;;;;;;;;;;;;;;;;;;4951691;28;90371;-64
2023/08/20 15:00:14;;;;;;;;;;;;;;;;;;4960083;28;89558;-65
2023/08/20 15:02:43;;;;;;;;;;;;;;;;;;4956400;28;90364;-64
2023/08/20 15:05:09;;;;;;;;;;;;;;;;;;4958531;28;91107;-65
2023/08/20 15:07:34;;;;;;;;;;;;;;;;;;4955094;28;90688;-65
2023/08/20 15:09:59;;;;;;;;;;;;;;;;;;4957780;28;89707;-65
2023/08/20 15:12:24;;;;;;;;;;;;;;;;;;4956857;28;89649;-66
2023/08/20 15:14:50;;;;;;;;;;;;;;;;;;4957601;28;90099;-65
2023/08/20 15:17:15;;;;;;;;;;;;;;;;;;4951704;28;89057;-65
2023/08/20 15:19:40;;;;;;;;;;;;;;;;;;4958515;28;89351;-65
2023/08/20 15:22:05;;;;;;;;;;;;;;;;;;4963006;28;90286;-64
2023/08/20 15:24:30;;;;;;;;;;;;;;;;;;4952770;28;89046;-65
2023/08/20 15:26:56;;;;;;;;;;;;;;;;;;4957603;28;89657;-65
2023/08/20 15:29:21;;;;;;;;;;;;;;;;;;4958396;28;89824;-65
2023/08/20 15:31:46;;;;;;;;;;;;;;;;;;4958862;28;89985;-65
2023/08/20 15:34:12;;;;;;;;;;;;;;;;;;4960118;28;90059;-67
2023/08/20 15:36:37;;;;;;;;;;;;;;;;;;4957066;28;90999;-65
2023/08/20 15:39:03;;;;;;;;;;;;;;;;;;4952561;28;90741;-66
2023/08/20 15:41:29;;;;;;;;;;;;;;;;;;4957994;28;89854;-65
2023/08/20 15:43:54;;;;;;;;;;;;;;;;;;4958703;28;89439;-67
2023/08/20 15:46:19;;;;;;;;;;;;;;;;;;4959748;28;89654;-65
2023/08/20 15:48:45;;;;;;;;;;;;;;;;;;4961026;28;91122;-65
2023/08/20 15:51:10;;;;;;;;;;;;;;;;;;4956694;28;89169;-69
2023/08/20 15:53:35;;;;;;;;;;;;;;;;;;4961900;28;89535;-66
2023/08/20 15:56:00;;;;;;;;;;;;;;;;;;4959634;28;89248;-66
2023/08/20 15:58:25;;;;;;;;;;;;;;;;;;4956492;28;89408;-65
2023/08/20 16:00:51;;;;;;;;;;;;;;;;;;4962946;28;89376;-65
2023/08/20 16:03:16;;;;;;;;;;;;;;;;;;4960402;28;89254;-66
2023/08/20 16:05:41;;;;;;;;;;;;;;;;;;4959373;28;90182;-65
2023/08/20 16:08:07;;;;;;;;;;;;;;;;;;4950566;28;89717;-68
2023/08/20 16:10:32;;;;;;;;;;;;;;;;;;4954761;28;89002;-66
2023/08/20 16:12:57;;;;;;;;;;;;;;;;;;4958235;28;90009;-70
2023/08/20 16:15:23;;;;;;;;;;;;;;;;;;4953710;28;89695;-65
2023/08/20 16:17:49;;;;;;;;;;;;;;;;;;4955158;28;89750;-65
2023/08/20 16:20:14;;;;;;;;;;;;;;;;;;4961001;28;89814;-65
2023/08/20 16:22:39;;;;;;;;;;;;;;;;;;4955063;28;89550;-67
2023/08/20 16:25:04;;;;;;;;;;;;;;;;;;4950848;28;90086;-65
2023/08/20 16:27:30;;;;;;;;;;;;;;;;;;4958416;28;89609;-65
2023/08/20 16:29:55;;;;;;;;;;;;;;;;;;4958935;28;89711;-69
2023/08/20 16:32:20;;;;;;;;;;;;;;;;;;4957988;28;89595;-65
2023/08/20 16:34:46;;;;;;;;;;;;;;;;;;4957498;28;89657;-67
2023/08/20 16:37:12;;;;;;;;;;;;;;;;;;4960884;28;89379;-65